Time;durP1;ratioP1;P1;durP2;ratioP2;P2;SDS_P1;SDS_P2;PMS_P1;PMS_P2;Temp;Humidity;BMP_temperature;BMP_pressure;BME280_temperature;BME280_humidity;BME280_pressure;Samples;Min_cycle;Max_cycle;Signal;HPM_P1;HPM_P2
2022/08/06 00:02:26;;;;;;;3.05;0.77;;;14.20;99.90;;;;;;5082942;28;21376;-70
2022/08/06 00:04:52;;;;;;;0.70;0.57;;;14.10;99.90;;;;;;5082356;28;20028;-71
2022/08/06 00:07:17;;;;;;;4.05;0.65;;;14.10;99.90;;;;;;5082076;28;20032;-71
2022/08/06 00:09:43;;;;;;;1.65;0.50;;;14.10;99.90;;;;;;5082667;28;20028;-71
2022/08/06 00:12:09;;;;;;;0.85;0.65;;;14.00;99.90;;;;;;5082428;28;20028;-70
2022/08/06 00:14:35;;;;;;;0.20;0.20;;;14.00;99.90;;;;;;5081759;28;20055;-72
2022/08/06 00:17:00;;;;;;;1.52;0.55;;;14.00;99.90;;;;;;5081833;28;20033;-71
2022/08/06 00:19:26;;;;;;;0.90;0.60;;;14.00;99.90;;;;;;5082357;28;20047;-71
2022/08/06 00:21:53;;;;;;;2.20;0.90;;;14.00;99.90;;;;;;5081933;28;20028;-72
2022/08/06 00:24:19;;;;;;;0.63;0.40;;;14.00;99.90;;;;;;5081623;28;20024;-73
2022/08/06 00:26:46;;;;;;;2.63;0.60;;;14.00;99.90;;;;;;5082332;28;20032;-72
2022/08/06 00:29:12;;;;;;;0.57;0.30;;;14.00;99.90;;;;;;5081876;28;20020;-72
2022/08/06 00:31:38;;;;;;;3.00;0.40;;;14.00;99.90;;;;;;5081684;28;20032;-71
2022/08/06 00:34:03;;;;;;;3.42;0.88;;;14.00;99.90;;;;;;5081873;28;20083;-72
2022/08/06 00:36:31;;;;;;;1.88;0.45;;;13.90;99.90;;;;;;5081737;28;20031;-71
2022/08/06 00:38:59;;;;;;;3.97;0.80;;;13.90;99.90;;;;;;5081579;28;20083;-71
2022/08/06 00:41:25;;;;;;;0.55;0.50;;;13.90;99.90;;;;;;5081771;28;20029;-72
2022/08/06 00:43:51;;;;;;;2.92;0.77;;;13.90;99.90;;;;;;5080108;28;20025;-72
2022/08/06 00:46:17;;;;;;;4.05;0.50;;;13.90;99.90;;;;;;5081994;28;20381;-72
2022/08/06 00:48:43;;;;;;;0.70;0.50;;;13.80;99.90;;;;;;5081553;28;20040;-71
2022/08/06 00:51:09;;;;;;;0.63;0.60;;;13.80;99.90;;;;;;5081016;28;20051;-71
2022/08/06 00:53:36;;;;;;;3.65;0.70;;;13.80;99.90;;;;;;5081259;28;20412;-71
2022/08/06 00:56:03;;;;;;;0.30;0.30;;;13.70;99.90;;;;;;5081737;28;20029;-71
2022/08/06 00:58:29;;;;;;;0.52;0.38;;;13.70;99.90;;;;;;5078030;28;20074;-71
2022/08/06 01:00:54;;;;;;;0.63;0.60;;;13.50;99.90;;;;;;5080945;28;20036;-71
2022/08/06 01:03:20;;;;;;;1.50;0.75;;;13.70;99.90;;;;;;5081573;28;20028;-72
2022/08/06 01:05:45;;;;;;;1.42;0.57;;;13.60;99.90;;;;;;5081380;28;20024;-72
2022/08/06 01:08:12;;;;;;;2.25;0.98;;;13.60;99.90;;;;;;5081501;28;20046;-71
2022/08/06 01:10:38;;;;;;;1.85;0.63;;;13.60;99.90;;;;;;5081254;28;20111;-71
2022/08/06 01:13:03;;;;;;;6.65;1.25;;;13.60;99.90;;;;;;5081068;28;20399;-73
2022/08/06 01:15:30;;;;;;;3.15;0.75;;;13.60;99.90;;;;;;5080272;28;20094;-71
2022/08/06 01:17:57;;;;;;;1.27;0.80;;;13.60;99.90;;;;;;5080346;28;20035;-72
2022/08/06 01:20:44;;;;;;;2.60;0.70;;;13.50;99.90;;;;;;5079204;28;20020;-72
2022/08/06 01:23:35;;;;;;;3.70;1.05;;;13.50;99.90;;;;;;5080846;28;20032;-71
2022/08/06 01:26:34;;;;;;;0.68;0.52;;;13.50;99.90;;;;;;5080447;28;20036;-71
2022/08/06 01:29:07;;;;;;;2.13;0.70;;;13.40;99.90;;;;;;5079272;28;20393;-70
2022/08/06 01:31:36;;;;;;;2.88;0.75;;;13.40;99.90;;;;;;5080245;28;20047;-70
2022/08/06 01:34:16;;;;;;;0.98;0.77;;;13.40;99.90;;;;;;5078114;28;20052;-71
2022/08/06 01:37:09;;;;;;;1.55;0.68;;;13.40;99.90;;;;;;5080907;28;20027;-70
2022/08/06 01:39:37;;;;;;;9.27;1.23;;;13.30;99.90;;;;;;5080876;28;20041;-70
2022/08/06 01:42:05;;;;;;;0.90;0.73;;;13.40;99.90;;;;;;5080178;28;20027;-71
2022/08/06 01:44:35;;;;;;;1.08;0.85;;;13.30;99.90;;;;;;5081115;28;20469;-71
2022/08/06 01:47:10;;;;;;;1.05;0.60;;;13.30;99.90;;;;;;5080170;28;20043;-71
2022/08/06 01:49:37;;;;;;;3.45;1.05;;;;;;;;;;5079916;28;20040;-71
2022/08/06 01:52:04;;;;;;;1.48;1.02;;;;;;;;;;5080764;28;20040;-71
2022/08/06 01:54:35;;;;;;;5.32;0.80;;;;;;;;;;5080216;28;20037;-71
2022/08/06 01:57:02;;;;;;;2.38;0.85;;;;;;;;;;5080944;28;20079;-72
2022/08/06 01:59:33;;;;;;;1.85;0.68;;;;;;;;;;5080640;28;20044;-71
2022/08/06 02:02:00;;;;;;;1.88;1.20;;;;;;;;;;5080190;28;20020;-70
2022/08/06 02:04:29;;;;;;;2.45;1.40;;;;;;;;;;5080746;28;20024;-71
2022/08/06 02:06:56;;;;;;;0.63;0.60;;;;;;;;;;5079554;28;20021;-71
2022/08/06 02:09:23;;;;;;;1.55;0.88;;;;;;;;;;5080453;28;20025;-72
2022/08/06 02:11:57;;;;;;;2.38;1.17;;;;;;;;;;5080214;28;20086;-71
2022/08/06 02:14:25;;;;;;;9.35;1.10;;;;;;;;;;5080064;28;20033;-71
2022/08/06 02:16:52;;;;;;;1.40;0.75;;;;;;;;;;5080120;28;20027;-71
2022/08/06 02:19:18;;;;;;;2.83;0.80;;;;;;;;;;5079311;28;20491;-72
2022/08/06 02:21:45;;;;;;;0.65;0.65;;;;;;;;;;5080439;28;20021;-71
2022/08/06 02:24:11;;;;;;;0.95;0.75;;;;;;;;;;5080428;28;20032;-70
2022/08/06 02:26:38;;;;;;;0.47;0.38;;;;;;;;;;5080590;28;20034;-70
2022/08/06 02:29:05;;;;;;;1.00;0.60;;;;;;;;;;5079852;28;20029;-71
2022/08/06 02:31:31;;;;;;;1.15;1.05;;;;;;;;;;5079931;28;20036;-71
2022/08/06 02:33:57;;;;;;;2.50;1.15;;;;;;;;;;5080046;28;20025;-72
2022/08/06 02:36:39;;;;;;;1.10;0.70;;;;;;;;;;5079958;28;20040;-71
2022/08/06 02:39:16;;;;;;;1.30;0.70;;;;;;;;;;5079735;28;20028;-71
2022/08/06 02:41:45;;;;;;;3.08;1.17;;;;;;;;;;5079803;28;20017;-70
2022/08/06 02:44:15;;;;;;;2.38;0.95;;;;;;;;;;5081262;28;20024;-71
2022/08/06 02:46:47;;;;;;;2.28;0.90;;;;;;;;;;5084243;28;20029;-70
2022/08/06 02:49:17;;;;;;;1.25;0.77;;;;;;;;;;5083704;28;20056;-71
2022/08/06 02:51:49;;;;;;;2.97;1.08;;;;;;;;;;5083619;28;20131;-70
2022/08/06 02:54:18;;;;;;;1.90;1.10;;;;;;;;;;5084221;28;20055;-72
2022/08/06 02:56:45;;;;;;;1.77;0.75;;;;;;;;;;5084093;28;20839;-70
2022/08/06 02:59:17;;;;;;;0.85;0.60;;;;;;;;;;5083674;28;20024;-70
2022/08/06 03:01:47;;;;;;;5.45;1.13;;;;;;;;;;5083971;28;20056;-71
2022/08/06 03:04:14;;;;;;;0.60;0.60;;;;;;;;;;5083418;28;20107;-71
2022/08/06 03:06:41;;;;;;;0.47;0.45;;;;;;;;;;5082173;28;20033;-72
2022/08/06 03:09:09;;;;;;;0.98;0.70;;;;;;;;;;5083345;28;20035;-70
2022/08/06 03:11:35;;;;;;;1.05;0.90;;;;;;;;;;5082696;28;20032;-71
2022/08/06 03:14:02;;;;;;;2.35;1.08;;;;;;;;;;5083229;28;20327;-70
2022/08/06 03:16:29;;;;;;;0.98;0.65;;;;;;;;;;5083685;28;20027;-71
2022/08/06 03:18:56;;;;;;;3.60;1.00;;;;;;;;;;5083205;28;20029;-73
2022/08/06 03:21:23;;;;;;;1.27;1.10;;;;;;;;;;5083277;28;20075;-71
2022/08/06 03:23:50;;;;;;;6.43;1.20;;;;;;;;;;5082155;28;20013;-71
2022/08/06 03:26:17;;;;;;;2.10;0.93;;;;;;;;;;5083352;28;20182;-72
2022/08/06 03:28:43;;;;;;;8.05;0.95;;;;;;;;;;5083646;28;20031;-73
2022/08/06 03:31:09;;;;;;;1.00;0.73;;;;;;;;;;5083267;28;20037;-70
2022/08/06 03:33:36;;;;;;;1.63;0.70;;;;;;;;;;5082662;28;20633;-70
2022/08/06 03:36:03;;;;;;;2.67;0.60;;;13.30;99.90;;;;;;5083099;28;20127;-71
2022/08/06 03:38:37;;;;;;;2.05;1.40;;;12.60;99.90;;;;;;5082682;28;20039;-70
2022/08/06 03:41:04;;;;;;;3.15;1.27;;;12.50;99.90;;;;;;5082943;28;20092;-71
2022/08/06 03:43:30;;;;;;;1.92;0.93;;;12.50;99.90;;;;;;5082836;28;20032;-70
2022/08/06 03:46:00;;;;;;;2.17;0.63;;;12.50;99.90;;;;;;5082366;28;20036;-71
2022/08/06 03:48:32;;;;;;;2.28;1.27;;;12.40;99.90;;;;;;5082255;28;20025;-70
2022/08/06 03:51:00;;;;;;;2.47;1.33;;;12.40;99.90;;;;;;5082217;28;20059;-72
2022/08/06 03:53:27;;;;;;;1.80;1.05;;;12.40;99.90;;;;;;5082319;28;20052;-71
2022/08/06 03:55:57;;;;;;;2.15;1.30;;;12.30;99.90;;;;;;5081615;28;20029;-71
2022/08/06 03:58:25;;;;;;;2.00;1.08;;;12.30;99.90;;;;;;5082591;28;20047;-71
2022/08/06 04:01:11;;;;;;;1.95;0.90;;;12.30;99.90;;;;;;5082318;28;20016;-71
2022/08/06 04:03:38;;;;;;;1.98;1.08;;;12.40;99.90;;;;;;5082982;28;20032;-70
2022/08/06 04:06:04;;;;;;;1.30;0.52;;;12.30;99.90;;;;;;5082088;28;20025;-71
2022/08/06 04:08:32;;;;;;;4.55;1.27;;;12.30;99.90;;;;;;5082455;28;20047;-71
2022/08/06 04:10:59;;;;;;;0.98;0.60;;;12.40;99.90;;;;;;5082121;28;20042;-71
2022/08/06 04:13:26;;;;;;;1.40;1.00;;;12.40;99.90;;;;;;5081715;28;20028;-72
2022/08/06 04:15:53;;;;;;;1.58;1.13;;;12.40;99.90;;;;;;5082542;28;20024;-72
2022/08/06 04:18:27;;;;;;;2.72;1.25;;;12.40;99.90;;;;;;5082217;28;20029;-70
2022/08/06 04:20:56;;;;;;;2.10;1.00;;;12.40;99.90;;;;;;5081531;28;20075;-72
2022/08/06 04:23:23;;;;;;;3.35;0.95;;;12.30;99.90;;;;;;5081803;28;20123;-71
2022/08/06 04:25:53;;;;;;;1.20;1.00;;;12.30;99.90;;;;;;5082012;28;20035;-72
2022/08/06 04:28:20;;;;;;;1.55;0.80;;;12.30;99.90;;;;;;5081905;28;20029;-71
2022/08/06 04:30:48;;;;;;;2.22;0.95;;;12.30;99.90;;;;;;5081795;28;20056;-72
2022/08/06 04:33:19;;;;;;;3.15;1.15;;;12.30;99.90;;;;;;5082360;28;20415;-71
2022/08/06 04:35:46;;;;;;;1.02;0.90;;;12.30;99.90;;;;;;5081604;28;20109;-71
2022/08/06 04:38:13;;;;;;;1.05;0.70;;;12.40;99.90;;;;;;5082078;28;20027;-71
2022/08/06 04:40:40;;;;;;;1.83;0.82;;;12.40;99.90;;;;;;5079664;28;20036;-71
2022/08/06 04:43:08;;;;;;;3.17;0.95;;;12.40;99.90;;;;;;5081603;28;20101;-72
2022/08/06 04:45:37;;;;;;;3.42;1.25;;;12.50;99.90;;;;;;5080179;28;20052;-70
2022/08/06 04:48:05;;;;;;;1.95;1.05;;;12.50;99.90;;;;;;5081267;28;20029;-71
2022/08/06 04:50:31;;;;;;;17.52;1.45;;;12.50;99.90;;;;;;5079001;28;20054;-71
2022/08/06 04:53:06;;;;;;;1.88;1.13;;;12.50;99.90;;;;;;5081731;28;20033;-70
2022/08/06 04:55:32;;;;;;;1.75;0.80;;;12.60;99.90;;;;;;5081036;28;20471;-71
2022/08/06 04:57:57;;;;;;;1.20;0.82;;;12.60;99.90;;;;;;5081657;28;20031;-71
2022/08/06 05:00:23;;;;;;;0.93;0.50;;;12.60;99.90;;;;;;5081424;28;20052;-72
2022/08/06 05:02:49;;;;;;;0.85;0.60;;;12.70;99.90;;;;;;5080910;28;20020;-73
2022/08/06 05:05:15;;;;;;;2.08;0.88;;;12.70;99.90;;;;;;5081401;28;20025;-71
2022/08/06 05:07:44;;;;;;;0.60;0.60;;;12.80;99.90;;;;;;5080437;28;20033;-72
2022/08/06 05:10:09;;;;;;;0.70;0.70;;;12.80;99.90;;;;;;5080617;28;20028;-73
2022/08/06 05:12:45;;;;;;;4.10;1.08;;;12.90;99.90;;;;;;5081397;28;20068;-72
2022/08/06 05:15:24;;;;;;;1.45;0.93;;;12.90;99.90;;;;;;5077246;28;20248;-72
2022/08/06 05:18:01;;;;;;;1.55;0.93;;;13.00;99.90;;;;;;5080998;28;20090;-74
2022/08/06 05:20:31;;;;;;;1.15;0.60;;;13.00;99.90;;;;;;5080724;28;20111;-72
2022/08/06 05:23:07;;;;;;;3.95;0.93;;;13.10;99.90;;;;;;5080946;28;20106;-72
2022/08/06 05:25:36;;;;;;;1.65;0.90;;;13.10;99.90;;;;;;5079598;28;20020;-71
2022/08/06 05:28:02;;;;;;;1.33;0.70;;;13.20;99.90;;;;;;5079020;28;20032;-72
2022/08/06 05:30:28;;;;;;;1.05;0.52;;;13.20;99.90;;;;;;5080363;28;20036;-71
2022/08/06 05:32:55;;;;;;;1.83;0.70;;;13.20;99.90;;;;;;5079733;28;20033;-71
2022/08/06 05:35:22;;;;;;;2.05;0.85;;;13.30;99.90;;;;;;5077709;28;20067;-72
2022/08/06 05:37:48;;;;;;;0.50;0.40;;;13.30;99.90;;;;;;5074908;28;20044;-72
2022/08/06 05:40:13;;;;;;;2.75;1.08;;;13.30;99.90;;;;;;5078793;28;20044;-70
2022/08/06 05:42:39;;;;;;;3.25;1.23;;;13.40;99.90;;;;;;5079141;28;20036;-70
2022/08/06 05:45:08;;;;;;;0.63;0.40;;;13.40;99.90;;;;;;5075836;28;20082;-71
2022/08/06 05:47:37;;;;;;;5.00;0.60;;;13.50;99.90;;;;;;5078498;28;20451;-71
2022/08/06 06:41:18;;;;;;;3.28;0.47;;;14.70;99.90;;;;;;5083969;23;20145;-74
2022/08/06 06:43:53;;;;;;;0.10;0.10;;;14.80;99.90;;;;;;4992942;28;20509;-73
2022/08/06 06:46:39;;;;;;;0.70;0.43;;;14.80;99.90;;;;;;4992354;28;20065;-70
2022/08/06 06:49:35;;;;;;;0.50;0.30;;;14.90;99.90;;;;;;4991523;28;20037;-72
2022/08/06 06:52:14;;;;;;;0.75;0.50;;;15.00;99.90;;;;;;4988932;28;20042;-71
2022/08/06 06:54:44;;;;;;;1.00;0.52;;;15.00;99.90;;;;;;4993200;28;20065;-71
2022/08/06 06:57:15;;;;;;;4.53;0.52;;;15.00;99.90;;;;;;4993483;28;20188;-70
2022/08/06 06:59:44;;;;;;;0.55;0.20;;;14.90;99.90;;;;;;4994355;28;20376;-71
2022/08/06 07:02:18;;;;;;;0.15;0.15;;;15.00;99.90;;;;;;4985179;28;20034;-71
2022/08/06 07:04:45;;;;;;;0.70;0.30;;;15.10;99.90;;;;;;4991309;28;20038;-70
2022/08/06 07:07:12;;;;;;;0.13;0.13;;;15.10;99.90;;;;;;4992433;28;20041;-71
2022/08/06 07:09:39;;;;;;;0.32;0.32;;;15.20;99.90;;;;;;4994323;28;20030;-72
2022/08/06 07:12:06;;;;;;;0.75;0.50;;;15.30;99.90;;;;;;4993302;28;20038;-73
2022/08/06 07:14:35;;;;;;;0.80;0.40;;;15.40;99.90;;;;;;4993407;28;20117;-75
2022/08/06 07:17:03;;;;;;;0.63;0.28;;;15.60;99.90;;;;;;4991614;28;20022;-71
2022/08/06 07:19:30;;;;;;;0.25;0.20;;;15.60;99.90;;;;;;4992978;28;20035;-69
2022/08/06 07:21:56;;;;;;;1.98;0.50;;;15.70;99.90;;;;;;4992040;28;20033;-70
2022/08/06 07:24:24;;;;;;;1.23;0.73;;;15.80;99.90;;;;;;4991373;28;20054;-71
2022/08/06 07:26:51;;;;;;;1.77;0.70;;;15.90;99.90;;;;;;4991891;28;20092;-69
2022/08/06 07:29:18;;;;;;;0.65;0.32;;;15.90;99.90;;;;;;4991781;28;20078;-70
2022/08/06 07:31:46;;;;;;;1.75;0.38;;;16.10;99.90;;;;;;4990454;28;20046;-71
2022/08/06 07:34:13;;;;;;;0.15;0.10;;;16.10;99.90;;;;;;4992096;28;20046;-72
2022/08/06 07:36:47;;;;;;;1.00;0.47;;;16.20;99.90;;;;;;4992456;28;20058;-72
2022/08/06 07:39:21;;;;;;;0.82;0.43;;;16.30;99.90;;;;;;4993161;28;20026;-73
2022/08/06 07:41:49;;;;;;;0.20;0.20;;;16.30;99.90;;;;;;4990910;28;20091;-71
2022/08/06 07:44:15;;;;;;;0.65;0.30;;;16.50;99.90;;;;;;4991843;28;20054;-73
2022/08/06 07:46:48;;;;;;;1.63;0.40;;;16.50;99.90;;;;;;4990747;28;20110;-71
2022/08/06 07:49:16;;;;;;;0.93;0.17;;;16.60;99.90;;;;;;4990479;28;20026;-71
2022/08/06 07:51:44;;;;;;;0.17;0.10;;;16.70;99.90;;;;;;4993516;28;20062;-73
2022/08/06 07:54:10;;;;;;;0.15;0.10;;;16.80;99.90;;;;;;4991889;28;20019;-72
2022/08/06 07:56:40;;;;;;;0.85;0.60;;;16.80;99.90;;;;;;4992021;28;20042;-76
2022/08/06 07:59:08;;;;;;;1.08;0.43;;;16.90;99.90;;;;;;4992417;28;20390;-72
2022/08/06 08:01:35;;;;;;;0.35;0.20;;;16.90;99.90;;;;;;4990166;28;20039;-73
2022/08/06 08:06:45;;;;;;;0.20;0.20;;;17.10;99.90;;;;;;4991301;28;20034;-71
2022/08/06 08:09:21;;;;;;;0.32;0.30;;;17.20;99.90;;;;;;4988545;28;20047;-71
2022/08/06 08:11:48;;;;;;;0.30;0.30;;;17.20;99.90;;;;;;4991488;28;20034;-74
2022/08/06 08:14:16;;;;;;;1.75;0.20;;;17.30;99.90;;;;;;4990330;28;20106;-72
2022/08/06 08:16:42;;;;;;;0.43;0.30;;;17.30;99.90;;;;;;4991604;28;20085;-74
2022/08/06 08:19:30;;;;;;;0.50;0.38;;;17.40;99.90;;;;;;4988861;28;20041;-76
2022/08/06 08:21:58;;;;;;;0.30;0.25;;;17.40;99.90;;;;;;4992452;28;20154;-71
2022/08/06 08:24:25;;;;;;;0.85;0.20;;;17.50;99.90;;;;;;4990799;28;20103;-72
2022/08/06 08:26:51;;;;;;;0.90;0.43;;;17.60;99.90;;;;;;4992790;28;20045;-72
2022/08/06 08:29:17;;;;;;;0.20;0.10;;;17.70;99.90;;;;;;4990691;28;20196;-73
2022/08/06 08:31:43;;;;;;;0.50;0.30;;;17.70;99.90;;;;;;4991515;28;20049;-72
2022/08/06 08:34:08;;;;;;;0.28;0.22;;;17.90;99.90;;;;;;4993136;28;20032;-72
2022/08/06 08:36:34;;;;;;;0.10;0.10;;;18.00;99.90;;;;;;4992031;28;20023;-72
2022/08/06 08:39:01;;;;;;;0.38;0.20;;;18.00;99.90;;;;;;4990970;28;20027;-73
2022/08/06 08:41:40;;;;;;;0.35;0.20;;;18.20;99.90;;;;;;4992020;28;20042;-70
2022/08/06 08:44:07;;;;;;;0.35;0.15;;;18.30;99.90;;;;;;4992789;28;20019;-72
2022/08/06 08:46:37;;;;;;;0.15;0.10;;;18.40;99.90;;;;;;4992195;28;20023;-72
2022/08/06 08:49:05;;;;;;;0.10;0.10;;;18.50;99.90;;;;;;4992397;28;20467;-74
2022/08/06 08:51:38;;;;;;;0.17;0.15;;;18.60;99.90;;;;;;4991483;28;20038;-74
2022/08/06 08:54:08;;;;;;;2.83;0.50;;;18.50;99.90;;;;;;4991299;28;20045;-71
2022/08/06 08:56:35;;;;;;;0.20;0.10;;;18.40;99.90;;;;;;4988511;28;20033;-74
2022/08/06 08:59:01;;;;;;;1.52;0.35;;;18.30;99.90;;;;;;4987329;28;20062;-72
2022/08/06 09:01:27;;;;;;;0.47;0.30;;;18.30;99.90;;;;;;4989776;28;20038;-72
2022/08/06 09:03:52;;;;;;;0.35;0.13;;;18.30;99.90;;;;;;4991518;28;20019;-73
2022/08/06 09:06:20;;;;;;;0.10;0.10;;;18.20;99.90;;;;;;4985483;28;20038;-74
2022/08/06 09:08:47;;;;;;;0.00;0.00;;;18.30;99.90;;;;;;4990782;28;20018;-73
2022/08/06 09:11:13;;;;;;;0.00;0.00;;;18.40;99.90;;;;;;4988030;28;20051;-73
2022/08/06 09:13:39;;;;;;;0.40;0.13;;;18.60;99.90;;;;;;4983477;28;20075;-74
2022/08/06 09:16:05;;;;;;;4.47;0.20;;;18.70;99.90;;;;;;4987354;28;20074;-73
2022/08/06 09:18:31;;;;;;;0.30;0.13;;;19.00;99.90;;;;;;4992370;28;20049;-72
2022/08/06 09:20:59;;;;;;;0.20;0.20;;;19.10;99.90;;;;;;4987813;28;20034;-74
2022/08/06 09:23:25;;;;;;;0.10;0.10;;;19.10;99.90;;;;;;4989435;28;21047;-73
2022/08/06 09:25:52;;;;;;;0.10;0.08;;;19.10;99.90;;;;;;4989476;28;20053;-76
2022/08/06 09:28:39;;;;;;;0.47;0.13;;;19.10;99.90;;;;;;4991671;28;20027;-74
2022/08/06 09:31:06;;;;;;;0.10;0.10;;;19.10;99.90;;;;;;4991973;28;20133;-71
2022/08/06 09:33:36;;;;;;;1.33;0.32;;;19.00;99.90;;;;;;4989489;28;20062;-74
2022/08/06 09:36:09;;;;;;;4.47;0.30;;;19.00;99.90;;;;;;4990279;28;20049;-74
2022/08/06 09:38:56;;;;;;;0.90;0.30;;;19.00;99.90;;;;;;4988595;28;20038;-76
2022/08/06 09:41:24;;;;;;;0.10;0.10;;;19.00;99.90;;;;;;4988415;28;20060;-73
2022/08/06 09:43:52;;;;;;;0.47;0.30;;;19.00;99.90;;;;;;4989538;28;20058;-75
2022/08/06 09:46:48;;;;;;;0.20;0.10;;;19.10;99.90;;;;;;4990058;28;20036;-72
2022/08/06 09:49:15;;;;;;;3.13;0.30;;;19.20;99.90;;;;;;4991749;28;20041;-74
2022/08/06 09:51:41;;;;;;;0.00;0.00;;;19.30;99.90;;;;;;4990578;28;20042;-73
2022/08/06 09:54:12;;;;;;;0.20;0.10;;;19.50;99.90;;;;;;4988342;28;20046;-73
2022/08/06 09:56:38;;;;;;;0.00;0.00;;;19.60;99.90;;;;;;4990812;28;20086;-74
2022/08/06 09:59:09;;;;;;;0.00;0.00;;;19.70;99.90;;;;;;4991314;28;20047;-73
2022/08/06 10:01:45;;;;;;;0.00;0.00;;;19.60;99.90;;;;;;4989768;28;20493;-75
2022/08/06 10:04:26;;;;;;;0.13;0.10;;;19.70;99.90;;;;;;4988154;28;20070;-75
2022/08/06 10:06:57;;;;;;;2.97;0.20;;;19.70;99.90;;;;;;4990491;28;20030;-74
2022/08/06 10:09:25;;;;;;;2.42;0.20;;;19.80;99.90;;;;;;4990635;28;20040;-75
2022/08/06 10:11:51;;;;;;;0.45;0.22;;;19.90;99.90;;;;;;4989498;28;20073;-74
2022/08/06 10:14:24;;;;;;;0.95;0.30;;;20.00;99.90;;;;;;4988764;28;20105;-74
2022/08/06 10:17:09;;;;;;;3.83;0.22;;;20.10;99.90;;;;;;4988529;28;20037;-77
2022/08/06 10:19:37;;;;;;;0.55;0.20;;;20.20;99.90;;;;;;4988863;28;20030;-76
2022/08/06 10:22:04;;;;;;;0.00;0.00;;;20.30;99.90;;;;;;4985275;28;20046;-75
2022/08/06 10:24:35;;;;;;;0.00;0.00;;;20.20;99.90;;;;;;4986464;28;20019;-76
2022/08/06 10:27:01;;;;;;;0.30;0.15;;;20.30;99.90;;;;;;4981849;28;20035;-75
2022/08/06 10:29:27;;;;;;;0.80;0.20;;;20.30;99.90;;;;;;4987974;28;20032;-74
2022/08/06 10:31:55;;;;;;;0.22;0.10;;;20.40;99.90;;;;;;4990118;28;20559;-75
2022/08/06 10:34:25;;;;;;;0.50;0.10;;;20.50;99.90;;;;;;4989511;28;20087;-75
2022/08/06 10:36:58;;;;;;;0.30;0.20;;;20.50;99.90;;;;;;4984642;28;20062;-73
2022/08/06 10:39:31;;;;;;;0.10;0.10;;;20.70;99.90;;;;;;4985781;28;20049;-72
2022/08/06 10:41:57;;;;;;;0.08;0.08;;;20.80;99.90;;;;;;4985817;28;20054;-73
2022/08/06 10:44:23;;;;;;;0.30;0.20;;;20.90;99.90;;;;;;4989726;28;20027;-74
2022/08/06 10:46:52;;;;;;;2.08;0.38;;;21.10;99.90;;;;;;4991036;28;20045;-76
2022/08/06 10:49:22;;;;;;;0.08;0.08;;;21.20;99.90;;;;;;4990502;28;20037;-75
2022/08/06 10:51:51;;;;;;;0.20;0.10;;;21.20;99.90;;;;;;4990175;28;20132;-73
2022/08/06 10:54:16;;;;;;;0.70;0.30;;;21.10;99.90;;;;;;4988457;28;20026;-74
2022/08/06 10:56:44;;;;;;;0.95;0.28;;;21.10;99.90;;;;;;4989815;28;20961;-75
2022/08/06 10:59:13;;;;;;;0.63;0.10;;;20.90;99.90;;;;;;4989954;28;20061;-73
2022/08/06 11:01:46;;;;;;;0.13;0.13;;;20.80;99.90;;;;;;4987619;28;20062;-75
2022/08/06 11:04:34;;;;;;;1.35;0.38;;;20.80;99.90;;;;;;4990565;28;20049;-73
2022/08/06 11:07:05;;;;;;;0.25;0.10;;;21.00;99.90;;;;;;4993847;28;20031;-74
2022/08/06 11:09:55;;;;;;;0.10;0.10;;;21.40;99.90;;;;;;4994175;28;20455;-74
2022/08/06 11:12:50;;;;;;;0.10;0.10;;;21.60;99.90;;;;;;4993291;28;20450;-75
2022/08/06 11:15:19;;;;;;;0.10;0.10;;;21.80;99.90;;;;;;4993410;28;20022;-76
2022/08/06 11:17:51;;;;;;;0.30;0.20;;;21.80;99.90;;;;;;4992122;28;20379;-73
2022/08/06 11:20:32;;;;;;;0.32;0.30;;;21.50;99.90;;;;;;4991805;28;20093;-75
2022/08/06 11:23:11;;;;;;;1.30;0.35;;;21.10;99.90;;;;;;4992910;28;20051;-75
2022/08/06 11:25:38;;;;;;;2.33;0.20;;;20.80;99.90;;;;;;4993578;28;20054;-75
2022/08/06 11:28:06;;;;;;;3.88;0.20;;;20.60;99.90;;;;;;4993477;28;20054;-75
2022/08/06 11:30:50;;;;;;;0.90;0.30;;;20.50;99.90;;;;;;4992186;28;20038;-74
2022/08/06 11:33:35;;;;;;;0.22;0.13;;;20.80;99.90;;;;;;4993730;28;20041;-73
2022/08/06 11:36:01;;;;;;;0.30;0.20;;;21.10;99.90;;;;;;4994200;28;20541;-73
2022/08/06 11:38:48;;;;;;;0.32;0.20;;;21.10;99.90;;;;;;4993709;28;20114;-74
2022/08/06 11:41:26;;;;;;;1.15;0.10;;;21.00;99.90;;;;;;4992304;28;20088;-72
2022/08/06 11:43:51;;;;;;;0.88;0.10;;;21.10;99.90;;;;;;4993786;28;20026;-73
2022/08/06 11:46:30;;;;;;;0.30;0.20;;;21.20;99.90;;;;;;4993022;28;20034;-75
2022/08/06 11:48:58;;;;;;;0.17;0.13;;;21.50;99.90;;;;;;4994047;28;20106;-74
2022/08/06 11:51:42;;;;;;;0.52;0.40;;;21.70;99.90;;;;;;4993096;28;20062;-72
2022/08/06 11:54:23;;;;;;;3.35;0.68;;;21.80;99.90;;;;;;4992297;28;20084;-74
2022/08/06 11:57:06;;;;;;;0.40;0.30;;;22.00;99.90;;;;;;4992084;28;20050;-73
2022/08/06 11:59:35;;;;;;;0.30;0.10;;;22.20;99.90;;;;;;4991463;28;20867;-73
2022/08/06 12:02:07;;;;;;;0.73;0.17;;;22.40;99.90;;;;;;4992578;28;20030;-72
2022/08/06 12:04:38;;;;;;;0.80;0.30;;;22.60;99.90;;;;;;4993823;28;20521;-75
2022/08/06 12:07:24;;;;;;;0.25;0.10;;;22.70;99.90;;;;;;4993407;28;20094;-74
2022/08/06 12:10:11;;;;;;;2.58;0.43;;;22.90;99.90;;;;;;4992830;28;20023;-72
2022/08/06 12:12:49;;;;;;;0.28;0.10;;;23.10;99.90;;;;;;4991236;28;20372;-74
2022/08/06 12:15:15;;;;;;;0.68;0.22;;;23.20;99.90;;;;;;4992989;28;20081;-75
2022/08/06 12:18:03;;;;;;;1.05;0.55;;;23.20;99.90;;;;;;4992774;28;20034;-75
2022/08/06 12:20:34;;;;;;;0.00;0.00;;;23.40;99.90;;;;;;4989412;28;20629;-74
2022/08/06 12:23:06;;;;;;;0.55;0.35;;;23.50;99.90;;;;;;4992082;28;20042;-74
2022/08/06 12:25:37;;;;;;;0.28;0.15;;;23.50;99.90;;;;;;4992193;28;20038;-74
2022/08/06 12:28:05;;;;;;;0.00;0.00;;;23.60;99.90;;;;;;4992226;28;20029;-75
2022/08/06 12:30:50;;;;;;;9.00;0.55;;;23.80;99.90;;;;;;4989943;28;20094;-75
2022/08/06 12:33:18;;;;;;;0.57;0.22;;;23.60;99.90;;;;;;4992753;28;20035;-73
2022/08/06 12:35:58;;;;;;;0.10;0.10;;;23.50;99.90;;;;;;4992515;28;20041;-73
2022/08/06 12:38:30;;;;;;;0.30;0.25;;;23.40;99.90;;;;;;4991584;28;20085;-73
2022/08/06 12:41:07;;;;;;;0.40;0.25;;;23.40;99.90;;;;;;4992645;28;20029;-72
2022/08/06 12:43:34;;;;;;;0.80;0.40;;;23.70;99.90;;;;;;4993277;28;20445;-72
2022/08/06 12:46:03;;;;;;;0.45;0.25;;;24.10;99.90;;;;;;4992523;28;20085;-73
2022/08/06 12:48:30;;;;;;;0.63;0.22;;;24.60;99.90;;;;;;4992335;28;20061;-74
2022/08/06 12:51:13;;;;;;;1.48;0.52;;;24.70;99.90;;;;;;4991884;28;20049;-76
2022/08/06 12:53:50;;;;;;;3.22;0.63;;;24.40;99.90;;;;;;4992492;28;20031;-74
2022/08/06 12:56:18;;;;;;;0.70;0.70;;;23.90;99.90;;;;;;4991698;28;20023;-74
2022/08/06 12:58:45;;;;;;;1.48;0.90;;;23.50;99.90;;;;;;4991351;28;20027;-74
2022/08/06 13:01:13;;;;;;;1.83;0.60;;;23.20;99.90;;;;;;4983581;28;20022;-72
2022/08/06 13:03:43;;;;;;;1.08;0.57;;;23.10;99.90;;;;;;4983540;28;20383;-72
2022/08/06 13:06:09;;;;;;;1.30;0.50;;;23.10;99.90;;;;;;4990368;28;20050;-72
2022/08/06 13:08:39;;;;;;;5.03;0.82;;;23.40;99.90;;;;;;4988155;28;20079;-73
2022/08/06 13:11:05;;;;;;;0.40;0.30;;;23.70;99.90;;;;;;4987139;28;20102;-73
2022/08/06 13:13:41;;;;;;;1.35;0.77;;;24.10;99.90;;;;;;4989987;28;20109;-75
2022/08/06 13:16:10;;;;;;;1.20;0.70;;;24.30;99.90;;;;;;4988693;28;20065;-73
2022/08/06 13:18:37;;;;;;;1.67;1.15;;;23.90;99.90;;;;;;4991429;28;20045;-76
2022/08/06 13:21:04;;;;;;;1.55;0.80;;;23.40;99.90;;;;;;4991939;28;20063;-73
2022/08/06 13:23:34;;;;;;;1.35;0.77;;;22.80;99.90;;;;;;4979237;28;20050;-74
2022/08/06 13:26:21;;;;;;;1.52;1.20;;;22.30;99.90;;;;;;4986121;28;20081;-74
2022/08/06 13:29:27;;;;;;;1.50;0.93;;;22.00;99.90;;;;;;4988049;28;20053;-73
2022/08/06 13:32:08;;;;;;;2.15;1.25;;;21.90;99.90;;;;;;4927422;29;20047;-73
2022/08/06 13:34:56;;;;;;;1.98;0.63;;;22.00;99.90;;;;;;4982481;28;21990;-73
2022/08/06 13:37:46;;;;;;;1.25;0.60;;;22.00;99.90;;;;;;4986147;28;20045;-73
2022/08/06 13:40:12;;;;;;;1.10;0.60;;;21.90;99.90;;;;;;4985262;28;20035;-73
2022/08/06 13:42:52;;;;;;;3.30;1.13;;;22.10;99.90;;;;;;4986961;28;20046;-73
2022/08/06 13:45:24;;;;;;;2.35;1.02;;;22.70;99.90;;;;;;4989194;28;20402;-74
2022/08/06 13:47:51;;;;;;;0.90;0.77;;;23.40;99.90;;;;;;4988858;28;20074;-74
2022/08/06 13:50:20;;;;;;;1.33;0.93;;;23.90;99.90;;;;;;4990444;28;20030;-73
2022/08/06 13:52:47;;;;;;;1.65;1.13;;;24.10;99.90;;;;;;4989538;28;20046;-74
2022/08/06 13:55:12;;;;;;;2.05;1.25;;;24.10;99.90;;;;;;4991208;28;20026;-74
2022/08/06 13:57:39;;;;;;;1.52;0.63;;;24.00;99.90;;;;;;4990534;28;20045;-72
2022/08/06 14:00:09;;;;;;;2.38;0.95;;;23.90;99.90;;;;;;4981433;28;20027;-73
2022/08/06 14:02:35;;;;;;;2.08;1.20;;;23.70;99.90;;;;;;4989269;28;20040;-74
2022/08/06 14:05:03;;;;;;;0.95;0.80;;;23.40;99.90;;;;;;4987525;28;20062;-74
2022/08/06 14:07:29;;;;;;;0.82;0.55;;;23.10;99.90;;;;;;4988084;28;20081;-73
2022/08/06 14:10:04;;;;;;;4.55;1.25;;;22.70;99.90;;;;;;4984927;28;20050;-75
2022/08/06 14:12:30;;;;;;;1.10;1.00;;;22.60;99.90;;;;;;4980711;28;20101;-74